If you wish to contribute or participate in the discussions about articles you are invited to join SKYbrary as a registered user

 Actions

Bandaranaike International Airport

From SKYbrary Wiki

VCBI
Airport
ICAO: VCBI – IATA: CMB
Summary
Name Bandaranaike International Airport
Region Asia and Pacific
Territory Sri Lanka LK.gif
Location Negombo, Western Province
Serving Colombo
Elevation 7.925 m <br />26 ft7.925 m <br />
Coordinates 7° 10' 52.28" N, 79° 53' 1.72" E
Runways
Designator Length Width Surface ROPS
4/22 3350 m10,990.814 ft <br /> 45 m147.638 ft <br /> ASP yes/yes


METAR
Observation VCBI 171510Z 25003KT 200V280 9999 FEW018 29/25 Q1009 NOSIG
Station Katunayake
Date/Time 17 May 2021 15:10:00
Wind direction 250°
Wind speed 03 kts
Lowest cloud amount few clouds
Temperature 29°C
Dew point 25°C
Humidity 79%
QNH 1009 hPa
Weather condition n/a

Colombo International Airport (commonly known as Bandaranaike International Airport, Colombo-Bandaranaike and locally as Katunayake Airport) is the main international airport serving Sri Lanka.

Climatology

Tropical monsoon climate (Köppen climate classification Am)

Maps

Terrain

Loading map...

Airport Layout

Loading map...


Accidents & Serious Incidents at or in vicinity of VCBI

None on SKYbrary